createdAt,value
2022-11-27T00:01:17.117Z,17.60
2022-11-27T00:03:44.251Z,17.08
2022-11-27T00:06:20.622Z,16.05
2022-11-27T00:08:48.528Z,15.23
2022-11-27T00:11:18.402Z,14.32
2022-11-27T00:13:45.692Z,14.68
2022-11-27T00:16:13.955Z,19.15
2022-11-27T00:18:41.213Z,17.73
2022-11-27T00:21:10.985Z,18.90
2022-11-27T00:23:38.751Z,15.20
2022-11-27T00:26:06.488Z,14.68
2022-11-27T00:28:33.954Z,12.98
2022-11-27T00:31:02.150Z,12.13
2022-11-27T00:33:28.740Z,11.18
2022-11-27T00:35:55.392Z,12.55
2022-11-27T00:38:21.960Z,11.35
2022-11-27T00:40:48.966Z,10.02
2022-11-27T00:43:15.692Z,8.68
2022-11-27T00:45:42.207Z,9.25
2022-11-27T00:48:08.676Z,9.70
2022-11-27T00:50:35.181Z,9.70
2022-11-27T00:53:06.493Z,8.93
2022-11-27T00:55:36.608Z,9.60
2022-11-27T00:58:03.119Z,9.85
2022-11-27T01:00:29.728Z,10.50
2022-11-27T01:02:56.499Z,10.27
2022-11-27T01:05:26.418Z,9.63
2022-11-27T01:07:52.958Z,10.00
2022-11-27T01:10:21.417Z,10.43
2022-11-27T01:12:50.084Z,9.75
2022-11-27T01:15:16.661Z,9.50
2022-11-27T01:17:43.187Z,11.52
2022-11-27T01:20:10.110Z,10.88
2022-11-27T01:22:36.632Z,11.32
2022-11-27T01:25:03.271Z,11.27
2022-11-27T01:27:29.752Z,10.52
2022-11-27T01:29:56.355Z,10.88
2022-11-27T01:32:23.076Z,10.93
2022-11-27T01:34:50.120Z,12.05
2022-11-27T01:37:16.701Z,10.52
2022-11-27T01:39:43.316Z,10.48
2022-11-27T01:42:11.672Z,9.18
2022-11-27T01:44:38.493Z,8.88
2022-11-27T01:47:15.380Z,10.27
2022-11-27T01:49:50.528Z,10.13
2022-11-27T01:52:28.069Z,10.50
2022-11-27T01:54:59.142Z,10.95
2022-11-27T01:57:31.091Z,11.77
2022-11-27T02:00:00.589Z,10.75
2022-11-27T02:02:27.271Z,9.70
2022-11-27T02:04:55.141Z,10.93
2022-11-27T02:07:22.085Z,9.60
2022-11-27T02:09:48.884Z,9.90
2022-11-27T02:12:25.688Z,10.40
2022-11-27T02:15:14.111Z,11.20
2022-11-27T02:17:46.411Z,11.07
2022-11-27T02:20:28.057Z,10.73
2022-11-27T02:23:23.091Z,11.20
2022-11-27T02:25:55.754Z,10.90
2022-11-27T02:28:58.670Z,11.20
2022-11-27T02:31:25.681Z,10.20
2022-11-27T02:33:56.100Z,11.23
2022-11-27T02:36:29.656Z,9.68
2022-11-27T02:39:09.070Z,9.85
2022-11-27T02:41:47.215Z,9.13
2022-11-27T02:44:15.998Z,9.88
2022-11-27T02:46:42.948Z,9.73
2022-11-27T02:49:12.995Z,11.15
2022-11-27T02:51:49.533Z,10.00
2022-11-27T02:54:21.848Z,10.65
2022-11-27T02:56:49.923Z,10.45
2022-11-27T02:59:18.241Z,11.05
2022-11-27T03:01:52.068Z,11.15
2022-11-27T03:04:24.751Z,10.82
2022-11-27T03:06:56.457Z,11.15
2022-11-27T03:09:51.174Z,11.23
2022-11-27T03:12:19.062Z,11.43
2022-11-27T03:14:47.044Z,10.88
2022-11-27T03:17:44.132Z,12.23
2022-11-27T03:20:10.645Z,13.45
2022-11-27T03:22:37.259Z,13.20
2022-11-27T03:25:04.080Z,13.40
2022-11-27T03:27:38.744Z,11.95
2022-11-27T03:32:33.406Z,11.48
2022-11-27T03:35:00.532Z,11.90
2022-11-27T03:37:28.251Z,10.95
2022-11-27T03:39:55.101Z,12.00
2022-11-27T03:42:45.918Z,11.50
2022-11-27T03:45:43.728Z,11.35
2022-11-27T03:48:35.458Z,10.35
2022-11-27T03:51:04.684Z,10.73
2022-11-27T03:54:06.733Z,10.32
2022-11-27T03:56:33.209Z,10.48
2022-11-27T03:59:09.169Z,10.20
2022-11-27T04:01:36.485Z,10.18
2022-11-27T04:04:03.388Z,11.52
2022-11-27T04:06:30.615Z,10.80
2022-11-27T04:08:57.299Z,11.02
2022-11-27T04:11:23.772Z,10.50
2022-11-27T04:13:52.237Z,9.77
2022-11-27T04:16:19.366Z,8.02
2022-11-27T04:18:45.889Z,8.57
2022-11-27T04:21:12.850Z,8.55
2022-11-27T04:23:39.655Z,7.10
2022-11-27T04:26:06.548Z,6.55
2022-11-27T04:28:34.451Z,5.45
2022-11-27T04:31:01.636Z,4.82
2022-11-27T04:33:28.584Z,3.80
2022-11-27T04:35:55.212Z,2.08
2022-11-27T04:38:22.127Z,2.25
2022-11-27T04:40:48.669Z,2.40
2022-11-27T04:43:15.234Z,2.05
2022-11-27T04:45:41.790Z,1.80
2022-11-27T04:48:08.380Z,2.00
2022-11-27T04:50:34.916Z,2.72
2022-11-27T04:53:01.847Z,2.10
2022-11-27T04:55:29.275Z,1.50
2022-11-27T04:57:55.790Z,1.77
2022-11-27T05:00:22.319Z,1.25
2022-11-27T05:02:48.918Z,1.95
2022-11-27T05:05:17.145Z,1.80
2022-11-27T05:07:43.763Z,1.52
2022-11-27T05:10:11.305Z,1.45
2022-11-27T05:12:37.849Z,1.77
2022-11-27T05:15:04.985Z,2.40
2022-11-27T05:17:32.014Z,1.73
2022-11-27T05:19:58.502Z,1.80
2022-11-27T05:22:24.960Z,1.80
2022-11-27T05:24:51.482Z,1.42
2022-11-27T05:27:17.990Z,1.48
2022-11-27T05:29:44.602Z,2.13
2022-11-27T05:32:11.574Z,1.40
2022-11-27T05:34:38.415Z,1.33
2022-11-27T05:37:05.481Z,1.70
2022-11-27T05:39:32.065Z,1.20
2022-11-27T05:41:58.668Z,1.40
2022-11-27T05:44:26.549Z,1.48
2022-11-27T05:46:53.067Z,1.48
2022-11-27T05:49:19.648Z,1.17
2022-11-27T05:51:50.944Z,1.20
2022-11-27T05:54:17.934Z,1.20
2022-11-27T05:56:44.444Z,1.73
2022-11-27T05:59:11.049Z,1.27
2022-11-27T06:01:37.693Z,1.73
2022-11-27T06:04:04.383Z,1.70
2022-11-27T06:06:31.414Z,1.70
2022-11-27T06:08:57.880Z,1.05
2022-11-27T06:11:24.572Z,1.92
2022-11-27T06:13:51.213Z,1.38
2022-11-27T06:16:21.685Z,1.23
2022-11-27T06:18:53.233Z,1.27
2022-11-27T06:21:21.441Z,1.10
2022-11-27T06:23:48.439Z,1.33
2022-11-27T06:26:16.662Z,1.08
2022-11-27T06:28:43.641Z,0.90
2022-11-27T06:31:17.728Z,1.27
2022-11-27T06:36:11.841Z,0.90
2022-11-27T06:38:39.038Z,1.05
2022-11-27T06:41:08.521Z,0.90
2022-11-27T06:43:35.957Z,1.15
2022-11-27T06:46:04.230Z,0.90
2022-11-27T06:48:31.986Z,1.00
2022-11-27T06:51:03.310Z,1.15
2022-11-27T06:53:30.838Z,1.00
2022-11-27T06:55:57.845Z,2.97
2022-11-27T06:58:30.658Z,1.40
2022-11-27T07:01:01.934Z,1.80
2022-11-27T07:03:28.528Z,1.25
2022-11-27T07:05:55.188Z,1.17
2022-11-27T07:08:22.488Z,0.90
2022-11-27T07:10:49.029Z,1.23
2022-11-27T07:13:15.537Z,1.40
2022-11-27T07:15:42.497Z,1.50
2022-11-27T07:18:09.996Z,1.75
2022-11-27T07:20:36.491Z,1.85
2022-11-27T07:23:03.008Z,1.48
2022-11-27T07:25:29.604Z,1.00
2022-11-27T07:27:56.209Z,1.15
2022-11-27T07:30:22.745Z,1.48
2022-11-27T07:32:49.292Z,1.42
2022-11-27T07:35:15.836Z,1.13
2022-11-27T07:37:42.438Z,1.70
2022-11-27T07:40:09.816Z,1.35
2022-11-27T07:42:38.731Z,1.08
2022-11-27T07:45:08.411Z,1.20
2022-11-27T07:47:35.009Z,1.27
2022-11-27T07:50:01.725Z,1.15
2022-11-27T07:52:28.431Z,1.27
2022-11-27T07:54:54.975Z,1.35
2022-11-27T07:57:21.546Z,1.20
2022-11-27T07:59:48.113Z,1.15
2022-11-27T08:02:15.239Z,1.10
2022-11-27T08:04:42.305Z,1.10
2022-11-27T08:07:09.032Z,1.52
2022-11-27T08:09:35.908Z,1.42
2022-11-27T08:12:02.356Z,1.30
2022-11-27T08:14:29.025Z,1.35
2022-11-27T08:16:55.774Z,1.63
2022-11-27T08:19:22.388Z,1.23
2022-11-27T08:21:48.937Z,1.35
2022-11-27T08:24:15.639Z,1.52
2022-11-27T08:26:42.916Z,1.70
2022-11-27T08:29:12.520Z,1.65
2022-11-27T08:31:39.352Z,1.80
2022-11-27T08:34:06.146Z,1.50
2022-11-27T08:36:32.701Z,1.20
2022-11-27T08:38:59.327Z,1.90
2022-11-27T08:41:25.870Z,2.10
2022-11-27T08:43:52.478Z,2.00
2022-11-27T08:46:19.074Z,2.15
2022-11-27T08:48:45.659Z,1.98
2022-11-27T08:51:15.585Z,2.00
2022-11-27T08:53:45.154Z,1.45
2022-11-27T08:56:16.869Z,1.75
2022-11-27T08:58:44.653Z,2.05
2022-11-27T09:01:16.176Z,1.55
2022-11-27T09:03:43.478Z,2.03
2022-11-27T09:06:12.779Z,3.03
2022-11-27T09:08:40.356Z,2.63
2022-11-27T09:11:07.664Z,2.08
2022-11-27T09:13:36.937Z,2.38
2022-11-27T09:16:09.345Z,2.22
2022-11-27T09:18:35.897Z,1.67
2022-11-27T09:21:05.081Z,2.25
2022-11-27T09:23:32.342Z,1.88
2022-11-27T09:26:00.161Z,2.65
2022-11-27T09:28:31.404Z,2.05
2022-11-27T09:31:00.449Z,3.00
2022-11-27T09:33:28.434Z,1.92
2022-11-27T09:35:55.249Z,2.10
2022-11-27T09:38:23.673Z,2.20
2022-11-27T09:40:53.548Z,2.13
2022-11-27T09:43:29.584Z,2.90
2022-11-27T09:46:01.531Z,2.25
2022-11-27T09:48:39.289Z,1.65
2022-11-27T09:51:19.964Z,3.08
2022-11-27T09:53:58.048Z,2.05
2022-11-27T09:56:25.264Z,2.22
2022-11-27T09:58:59.569Z,1.77
2022-11-27T10:01:36.610Z,2.60
2022-11-27T10:04:12.991Z,2.45
2022-11-27T10:06:45.410Z,2.60
2022-11-27T10:09:36.744Z,1.88
2022-11-27T10:12:12.164Z,2.03
2022-11-27T10:14:38.785Z,2.08
2022-11-27T10:17:28.791Z,2.20
2022-11-27T10:20:23.823Z,2.10
2022-11-27T10:23:03.252Z,2.40
2022-11-27T10:25:39.885Z,1.88
2022-11-27T10:28:22.326Z,2.30
2022-11-27T10:30:58.087Z,4.38
2022-11-27T10:33:33.361Z,2.13
2022-11-27T10:36:01.346Z,3.65
2022-11-27T10:38:40.266Z,2.50
2022-11-27T10:41:48.306Z,2.53
2022-11-27T10:44:25.248Z,2.38
2022-11-27T10:46:54.453Z,2.80
2022-11-27T10:49:21.745Z,2.25
2022-11-27T10:51:48.465Z,2.65
2022-11-27T10:54:26.552Z,2.33
2022-11-27T10:57:12.053Z,2.80
2022-11-27T11:00:07.671Z,2.88
2022-11-27T11:02:38.614Z,2.33
2022-11-27T11:05:45.069Z,2.40
2022-11-27T11:11:02.307Z,2.10
2022-11-27T11:13:33.697Z,2.78
2022-11-27T11:16:05.038Z,2.47
2022-11-27T11:18:42.757Z,2.15
2022-11-27T11:21:33.653Z,2.83
2022-11-27T11:24:06.958Z,2.30
2022-11-27T11:26:52.759Z,2.58
2022-11-27T11:29:34.485Z,1.70
2022-11-27T11:32:11.252Z,2.00
2022-11-27T11:34:43.812Z,1.88
2022-11-27T11:37:23.787Z,2.22
2022-11-27T11:39:55.602Z,1.90
2022-11-27T11:42:25.645Z,2.05
2022-11-27T11:44:54.992Z,1.60
2022-11-27T11:47:26.693Z,2.25
2022-11-27T11:49:55.108Z,2.08
2022-11-27T11:52:24.539Z,2.25
2022-11-27T11:55:22.062Z,2.63
2022-11-27T11:58:11.941Z,1.73
2022-11-27T12:01:11.821Z,2.45
2022-11-27T12:04:02.954Z,1.80
2022-11-27T12:06:48.304Z,1.70
2022-11-27T12:09:17.674Z,2.25
2022-11-27T12:11:48.097Z,2.42
2022-11-27T12:14:32.553Z,2.25
2022-11-27T12:17:28.173Z,2.22
2022-11-27T12:20:35.906Z,2.28
2022-11-27T12:23:28.218Z,2.00
2022-11-27T12:26:26.963Z,2.55
2022-11-27T12:29:09.453Z,2.50
2022-11-27T12:32:00.941Z,2.60
2022-11-27T12:34:33.266Z,2.25
2022-11-27T12:37:07.062Z,1.52
2022-11-27T12:39:59.440Z,2.70
2022-11-27T12:42:33.440Z,2.05
2022-11-27T12:44:59.922Z,2.85
2022-11-27T12:47:40.738Z,3.00
2022-11-27T12:50:23.833Z,2.50
2022-11-27T12:53:09.819Z,1.60
2022-11-27T12:55:36.633Z,1.92
2022-11-27T12:58:07.816Z,2.50
2022-11-27T13:00:39.425Z,2.78
2022-11-27T13:03:39.251Z,2.00
2022-11-27T13:06:12.176Z,1.52
2022-11-27T13:09:09.933Z,2.38
2022-11-27T13:11:39.483Z,3.00
2022-11-27T13:14:18.722Z,2.00
2022-11-27T13:16:50.353Z,1.90
2022-11-27T13:19:29.122Z,2.22
2022-11-27T13:21:58.359Z,2.13
2022-11-27T13:24:27.086Z,1.58
2022-11-27T13:27:10.728Z,1.90
2022-11-27T13:29:48.177Z,2.03
2022-11-27T13:32:30.903Z,2.03
2022-11-27T13:35:07.811Z,1.88
2022-11-27T13:37:37.484Z,1.60
2022-11-27T13:40:21.038Z,1.75
2022-11-27T13:42:56.455Z,2.08
2022-11-27T13:45:26.657Z,2.17
2022-11-27T13:47:54.457Z,2.67
2022-11-27T13:50:25.808Z,2.03
2022-11-27T13:53:00.784Z,1.60
2022-11-27T13:55:33.924Z,1.85
2022-11-27T13:58:02.721Z,1.90
2022-11-27T14:00:44.839Z,2.40
2022-11-27T14:03:30.460Z,2.13
2022-11-27T14:05:57.672Z,2.15
2022-11-27T14:08:31.833Z,1.80
2022-11-27T14:10:59.885Z,2.28
2022-11-27T14:13:38.434Z,2.10
2022-11-27T14:16:22.057Z,2.50
2022-11-27T14:18:51.776Z,2.03
2022-11-27T14:21:38.818Z,2.25
2022-11-27T14:24:23.557Z,1.90
2022-11-27T14:26:50.073Z,1.95
2022-11-27T14:29:16.625Z,2.47
2022-11-27T14:31:43.762Z,1.80
2022-11-27T14:34:30.565Z,1.80
2022-11-27T14:36:57.924Z,2.00
2022-11-27T14:39:31.348Z,1.92
2022-11-27T14:42:03.124Z,1.85
2022-11-27T14:44:30.204Z,1.88
2022-11-27T14:47:00.497Z,1.73
2022-11-27T14:49:29.061Z,1.92
2022-11-27T14:52:01.669Z,1.60
2022-11-27T14:54:39.176Z,1.70
2022-11-27T14:57:07.245Z,2.10
2022-11-27T14:59:33.813Z,1.80
2022-11-27T15:02:15.332Z,1.80
2022-11-27T15:04:43.765Z,1.50
2022-11-27T15:07:21.985Z,1.88
2022-11-27T15:09:54.263Z,2.30
2022-11-27T15:12:24.026Z,2.47
2022-11-27T15:15:02.311Z,3.08
2022-11-27T15:17:32.820Z,2.10
2022-11-27T15:20:01.267Z,3.22
2022-11-27T15:22:27.941Z,1.95
2022-11-27T15:25:02.687Z,2.70
2022-11-27T15:27:33.668Z,2.60
2022-11-27T15:30:10.107Z,2.90
2022-11-27T15:32:51.943Z,2.45
2022-11-27T15:35:27.951Z,2.90
2022-11-27T15:37:58.264Z,2.50
2022-11-27T15:40:24.881Z,3.47
2022-11-27T15:42:51.351Z,3.05
2022-11-27T15:45:17.944Z,2.88
2022-11-27T15:47:44.591Z,2.30
2022-11-27T15:50:16.448Z,3.20
2022-11-27T15:52:43.275Z,3.00
2022-11-27T15:55:17.176Z,2.67
2022-11-27T15:57:43.795Z,3.00
2022-11-27T16:00:11.054Z,2.53
2022-11-27T16:02:38.374Z,3.28
2022-11-27T16:05:06.883Z,3.85
2022-11-27T16:07:34.361Z,2.92
2022-11-27T16:10:01.564Z,3.40
2022-11-27T16:12:28.130Z,3.47
2022-11-27T16:14:54.685Z,3.28
2022-11-27T16:17:21.506Z,2.65
2022-11-27T16:19:47.993Z,2.83
2022-11-27T16:22:14.557Z,3.67
2022-11-27T16:24:41.545Z,3.63
2022-11-27T16:27:08.209Z,2.70
2022-11-27T16:29:34.986Z,3.75
2022-11-27T16:32:02.195Z,3.13
2022-11-27T16:34:28.845Z,3.45
2022-11-27T16:36:55.373Z,3.25
2022-11-27T16:39:21.882Z,2.90
2022-11-27T16:41:48.480Z,3.10
2022-11-27T16:44:15.435Z,3.63
2022-11-27T16:46:43.883Z,3.15
2022-11-27T16:49:13.260Z,2.90
2022-11-27T16:51:40.279Z,3.92
2022-11-27T16:54:10.035Z,5.20
2022-11-27T16:56:38.398Z,2.88
2022-11-27T16:59:10.029Z,3.20
2022-11-27T17:01:37.898Z,2.80
2022-11-27T17:04:07.188Z,2.78
2022-11-27T17:06:37.294Z,3.08
2022-11-27T17:09:06.039Z,4.40
2022-11-27T17:11:35.481Z,3.85
2022-11-27T17:14:06.929Z,2.75
2022-11-27T17:16:35.004Z,3.15
2022-11-27T17:19:02.623Z,3.60
2022-11-27T17:21:34.480Z,3.67
2022-11-27T17:24:03.694Z,3.97
2022-11-27T17:26:31.875Z,3.22
2022-11-27T17:28:59.607Z,3.63
2022-11-27T17:31:31.264Z,2.63
2022-11-27T17:33:58.380Z,2.88
2022-11-27T17:36:26.047Z,2.42
2022-11-27T17:38:53.646Z,3.63
2022-11-27T17:41:21.324Z,3.60
2022-11-27T17:43:48.611Z,2.83
2022-11-27T17:46:34.584Z,3.17
2022-11-27T17:49:03.258Z,2.65
2022-11-27T17:51:32.771Z,3.30
2022-11-27T17:54:01.644Z,2.90
2022-11-27T17:56:29.273Z,3.55
2022-11-27T17:58:55.849Z,4.40
2022-11-27T18:01:29.034Z,5.90
2022-11-27T18:03:57.619Z,5.28
2022-11-27T18:06:24.207Z,3.20
2022-11-27T18:08:50.929Z,4.07
2022-11-27T18:11:22.301Z,4.82
2022-11-27T18:13:49.365Z,4.70
2022-11-27T18:16:19.528Z,3.90
2022-11-27T18:18:46.960Z,2.63
2022-11-27T18:21:21.016Z,3.78
2022-11-27T18:24:21.383Z,4.07
2022-11-27T18:27:06.740Z,3.92
2022-11-27T18:29:23.348Z,3.35
2022-11-27T18:31:51.182Z,3.40
2022-11-27T18:34:18.032Z,2.92
2022-11-27T18:36:45.811Z,3.30
2022-11-27T18:39:12.458Z,3.00
2022-11-27T18:41:39.041Z,3.05
2022-11-27T18:44:05.732Z,3.78
2022-11-27T18:46:32.725Z,4.03
2022-11-27T18:49:00.806Z,3.17
2022-11-27T18:51:27.695Z,3.55
2022-11-27T18:53:55.865Z,5.57
2022-11-27T18:56:27.640Z,3.90
2022-11-27T18:58:54.645Z,4.70
2022-11-27T19:01:25.971Z,5.50
2022-11-27T19:03:53.042Z,11.55
2022-11-27T19:06:21.460Z,8.52
2022-11-27T19:08:48.640Z,12.05
2022-11-27T19:11:19.903Z,8.73
2022-11-27T19:13:46.815Z,12.00
2022-11-27T19:16:15.779Z,4.95
2022-11-27T19:18:42.808Z,3.92
2022-11-27T19:21:17.430Z,3.22
2022-11-27T19:23:44.546Z,2.85
2022-11-27T19:26:13.479Z,3.08
2022-11-27T19:28:40.600Z,3.47
2022-11-27T19:31:10.786Z,3.40
2022-11-27T19:33:38.260Z,9.27
2022-11-27T19:36:08.605Z,7.63
2022-11-27T19:38:35.948Z,2.92
2022-11-27T19:41:04.360Z,4.35
2022-11-27T19:43:31.227Z,3.88
2022-11-27T19:45:58.014Z,4.68
2022-11-27T19:48:24.563Z,6.40
2022-11-27T19:50:51.808Z,3.85
2022-11-27T19:53:18.570Z,3.63
2022-11-27T19:55:52.849Z,3.47
2022-11-27T19:58:19.434Z,4.15
2022-11-27T20:00:46.005Z,3.60
2022-11-27T20:03:12.563Z,3.88
2022-11-27T20:05:39.232Z,5.05
2022-11-27T20:08:05.872Z,7.00
2022-11-27T20:10:33.074Z,7.25
2022-11-27T20:13:01.668Z,8.02
2022-11-27T20:15:29.312Z,5.32
2022-11-27T20:17:56.063Z,4.53
2022-11-27T20:20:22.794Z,5.20
2022-11-27T20:22:50.372Z,4.30
2022-11-27T20:25:21.683Z,5.53
2022-11-27T20:27:48.462Z,6.82
2022-11-27T20:30:15.165Z,8.07
2022-11-27T20:32:41.666Z,7.95
2022-11-27T20:35:08.520Z,8.80
2022-11-27T20:37:35.112Z,11.82
2022-11-27T20:40:01.708Z,10.90
2022-11-27T20:42:28.299Z,12.13
2022-11-27T20:44:54.826Z,11.48
2022-11-27T20:47:21.370Z,10.32
2022-11-27T20:49:47.955Z,7.88
2022-11-27T20:52:14.680Z,7.38
2022-11-27T20:54:41.341Z,7.07
2022-11-27T20:57:14.199Z,9.57
2022-11-27T20:59:41.910Z,15.43
2022-11-27T21:02:12.505Z,12.32
2022-11-27T21:04:39.135Z,11.10
2022-11-27T21:07:06.642Z,10.25
2022-11-27T21:09:33.750Z,10.32
2022-11-27T21:12:00.688Z,6.95
2022-11-27T21:14:27.413Z,6.45
2022-11-27T21:16:54.436Z,6.22
2022-11-27T21:19:25.269Z,5.88
2022-11-27T21:21:53.439Z,5.80
2022-11-27T21:24:22.147Z,5.30
2022-11-27T21:26:49.181Z,5.00
2022-11-27T21:29:16.070Z,4.38
2022-11-27T21:31:46.752Z,4.22
2022-11-27T21:34:13.949Z,3.60
2022-11-27T21:36:40.618Z,4.85
2022-11-27T21:39:09.239Z,5.47
2022-11-27T21:41:36.638Z,4.50
2022-11-27T21:44:04.422Z,4.63
2022-11-27T21:46:31.274Z,5.10
2022-11-27T21:49:00.429Z,4.72
2022-11-27T21:51:28.854Z,4.63
2022-11-27T21:53:56.986Z,4.20
2022-11-27T21:56:25.804Z,4.72
2022-11-27T21:58:52.790Z,3.95
2022-11-27T22:01:21.846Z,4.07
2022-11-27T22:03:51.399Z,5.38
2022-11-27T22:06:19.129Z,5.22
2022-11-27T22:08:47.565Z,5.85
2022-11-27T22:11:17.740Z,5.47
2022-11-27T22:13:44.834Z,4.35
2022-11-27T22:16:20.168Z,4.95
2022-11-27T22:18:47.144Z,5.10
2022-11-27T22:21:14.637Z,4.65
2022-11-27T22:23:41.761Z,5.68
2022-11-27T22:26:11.748Z,3.60
2022-11-27T22:28:38.816Z,3.30
2022-11-27T22:31:17.073Z,3.83
2022-11-27T22:33:45.049Z,3.55
2022-11-27T22:36:16.878Z,3.15
2022-11-27T22:38:45.424Z,3.38
2022-11-27T22:41:12.891Z,2.95
2022-11-27T22:43:40.539Z,3.17
2022-11-27T22:46:09.723Z,4.00
2022-11-27T22:48:36.635Z,4.18
2022-11-27T22:51:03.362Z,3.17
2022-11-27T22:53:30.225Z,2.90
2022-11-27T22:55:57.386Z,3.70
2022-11-27T22:58:24.056Z,3.92
2022-11-27T23:00:57.202Z,3.85
2022-11-27T23:03:23.847Z,4.30
2022-11-27T23:05:50.452Z,3.65
2022-11-27T23:08:18.947Z,3.17
2022-11-27T23:10:49.629Z,3.78
2022-11-27T23:13:16.969Z,4.38
2022-11-27T23:15:44.550Z,5.25
2022-11-27T23:18:11.733Z,7.57
2022-11-27T23:20:42.657Z,7.07
2022-11-27T23:23:10.126Z,6.38
2022-11-27T23:25:37.262Z,7.50
2022-11-27T23:28:04.132Z,6.32
2022-11-27T23:30:31.562Z,6.50
2022-11-27T23:32:58.103Z,3.67
2022-11-27T23:35:24.720Z,3.40
2022-11-27T23:37:51.373Z,3.88
2022-11-27T23:40:18.066Z,4.43
2022-11-27T23:42:44.610Z,3.78
2022-11-27T23:45:11.651Z,3.55
2022-11-27T23:47:38.158Z,3.70
2022-11-27T23:50:06.377Z,3.42
2022-11-27T23:52:32.990Z,4.38
2022-11-27T23:54:59.589Z,3.15
2022-11-27T23:57:26.160Z,3.65
2022-11-27T23:59:52.653Z,3.92
